IBE006 LEMD-LPPT
Flight info
| Callsign | IBE006 |
|---|---|
| Flight time | N/A |
| Altitude | 31000 |
| Route | CCS UPULO |
| Aircraft | B772/H-SDE2E3FGHIJ5LORVWXY/LB1D1 |
Departure
| Time | 2026-04-30 07:29 |
|---|---|
| Airport | Adolfo Suárez Madrid–Barajas Airport (LEMD) |
Arrival
| Time | N/A |
|---|---|
| Airport | Lisbon Humberto Delgado Airport (LPPT) |
| Time | Latitude | Longitude | Altitude | Speed | Heading |
|---|---|---|---|---|---|
| 2026-04-30 07:25 | 40.49356 | -3.56933 | 2016 ft | 3 kts | 90° |
| 2026-04-30 07:25 | 40.49356 | -3.56960 | 2016 ft | 3 kts | 90° |
| 2026-04-30 07:26 | 40.49356 | -3.56987 | 2016 ft | 3 kts | 90° |
| 2026-04-30 07:26 | 40.49356 | -3.57014 | 2016 ft | 3 kts | 90° |
| 2026-04-30 07:26 | 40.49356 | -3.57032 | 2016 ft | 0 kts | 90° |
| 2026-04-30 07:26 | 40.49348 | -3.57016 | 2016 ft | 1 kts | 146° |
| 2026-04-30 07:27 | 40.49314 | -3.57024 | 2016 ft | 11 kts | 217° |
| 2026-04-30 07:27 | 40.49299 | -3.57096 | 2016 ft | 17 kts | 263° |
| 2026-04-30 07:27 | 40.49223 | -3.57249 | 2016 ft | 15 kts | 237° |
| 2026-04-30 07:27 | 40.49205 | -3.57342 | 2016 ft | 8 kts | 269° |
| 2026-04-30 07:28 | 40.49254 | -3.57439 | 2016 ft | 16 kts | 333° |
| 2026-04-30 07:28 | 40.49325 | -3.57464 | 2016 ft | 7 kts | 357° |
| 2026-04-30 07:28 | 40.49513 | -3.57473 | 2016 ft | 50 kts | 2° |
| 2026-04-30 07:28 | 40.50009 | -3.57470 | 2016 ft | 91 kts | 359° |
| 2026-04-30 07:29 | 40.50765 | -3.57452 | 2017 ft | 124 kts | 354° |
| 2026-04-30 07:29 | 40.51715 | -3.57495 | 2017 ft | 149 kts | 2° |
| 2026-04-30 07:29 | 40.52793 | -3.57468 | 2315 ft | 153 kts | 358° |
| 2026-04-30 07:29 | 40.53742 | -3.57770 | 3006 ft | 133 kts | 332° |
| 2026-04-30 07:30 | 40.54793 | -3.59899 | 2145 ft | 115 kts | 281° |
| 2026-04-30 07:30 | 40.54911 | -3.60025 | 2119 ft | 0 kts | 295° |